Stations météo

Publicité
Bourg-St-Maurice, France (7497): Température de l'air & dewpoint: 15.10.2019 06:00:00 - 21.10.2019 06:00:00 (CEST)Bourg-St-Maurice, France (7497): Température de l'air -20cm & Température de l'air -100cm: 15.10.2019 06:00:00 - 21.10.2019 06:00:00 (CEST)Bourg-St-Maurice, France (7497): Vitesse du vent & gusts: 15.10.2019 06:00:00 - 21.10.2019 06:00:00 (CEST)Bourg-St-Maurice, France (7497): Direction du vent: 15.10.2019 06:00:00 - 21.10.2019 06:00:00 (CEST)Bourg-St-Maurice, France (7497): Ensoleillement: 15.10.2019 06:00:00 - 21.10.2019 06:00:00 (CEST)Bourg-St-Maurice, France (7497): Quantités de précipitations: 15.10.2019 06:00:00 - 21.10.2019 06:00:00 (CEST)
Date & Time tt [°C] td [°C] tt -20cm [°C] tt -100cm [°C] ff [km/h] ff [knt] fx [km/h] fx [knt] dd sd [min] rr [mm]
21.10.2019 06:00:00 12,2 10,9 14,7 15,7 9 5 21 12 NNW 0 0,0
21.10.2019 05:00:00 12,0 11,5 14,7 15,7 5 3 10 5 NNW 0 1,2
21.10.2019 04:00:00 12,3 11,4 14,8 15,7 2 1 9 5 WSW 0 1,1
21.10.2019 03:00:00 12,6 11,3 14,8 15,7 3 1 7 4 ENE 0 2,8
21.10.2019 02:00:00 13,1 10,8 14,9 15,7 7 4 21 12 W 0 2,2
21.10.2019 01:00:00 16,9 9,1 14,9 15,7 4 2 35 19 WSW 0 0,0
21.10.2019 00:00:00 18,6 6,7 14,9 15,7 15 8 55 30 NNE 0 0,0
20.10.2019 23:00:00 18,5 7,0 14,9 15,7 17 9 39 21 NNE 0 0,0
20.10.2019 22:00:00 16,8 7,2 15,0 15,7 7 4 16 9 WNW 0 0,0
20.10.2019 21:00:00 17,9 6,4 14,9 15,6 5 3 42 23 SW 0 0,0
20.10.2019 20:00:00 20,0 4,5 14,9 15,7 11 6 45 24 NE 0 0,0
20.10.2019 19:00:00 20,1 4,9 14,8 15,7 11 6 47 25 NE 0 0,0
20.10.2019 18:00:00 21,1 4,6 14,7 15,7 20 11 43 23 NNE 10 0,0
20.10.2019 17:00:00 23,5 3,4 14,5 15,7 16 9 48 26 NE 53 0,0
20.10.2019 16:00:00 24,2 3,5 14,2 15,7 19 10 50 27 NE 55 0,0
20.10.2019 15:00:00 22,7 4,7 14,0 15,7 21 12 50 27 NE 37 0,0
20.10.2019 14:00:00 22,9 4,9 13,8 15,6 17 9 53 29 NE 32 0,0
20.10.2019 13:00:00 22,2 4,3 13,7 15,7 17 9 43 23 NE 30 0,0
20.10.2019 12:00:00 20,6 3,3 13,6 15,7 18 10 53 29 NE 0 0,0
20.10.2019 11:00:00 20,0 3,6 13,6 15,7 14 8 46 25 NE 9 0,0
20.10.2019 10:00:00 18,9 4,6 13,6 15,7 20 11 47 26 NE 0 0,0
20.10.2019 09:00:00 17,9 4,8 13,7 15,7 18 10 49 26 NE 0 0,0
20.10.2019 08:00:00 17,9 4,1 13,8 15,7 16 9 41 22 NNE 0 0,0
20.10.2019 07:00:00 17,4 5,3 13,8 15,7 15 8 45 24 NNE 0 0,0
20.10.2019 06:00:00 17,1 5,4 13,9 15,7 13 7 39 21 NNE 0 0,0
20.10.2019 05:00:00 16,9 5,5 14,1 15,7 13 7 47 26 NNE 0 0,0
20.10.2019 04:00:00 16,6 6,1 14,2 15,7 11 6 40 22 NNE 0 0,0
20.10.2019 03:00:00 16,7 5,6 14,3 15,7 17 9 44 24 NE 0 0,0
20.10.2019 02:00:00 14,7 6,8 14,4 15,7 13 7 33 18 NE 0 0,0
20.10.2019 01:00:00 12,2 7,1 14,5 15,7 5 3 11 6 SW 0 0,0
20.10.2019 00:00:00 11,5 7,6 14,7 15,7 5 3 10 5 WNW 0 0,0
19.10.2019 23:00:00 12,8 7,9 14,7 15,7 4 2 11 6 WSW 0 0,0
19.10.2019 22:00:00 14,6 8,3 14,8 15,7 8 4 39 21 SSW 0 0,0
19.10.2019 21:00:00 15,4 7,2 14,8 15,7 8 4 35 19 SSE 0 0,0
19.10.2019 20:00:00 14,1 8,1 14,8 15,7 4 2 16 9 WNW 0 0,0
19.10.2019 19:00:00 16,2 7,1 14,8 15,7 5 3 22 12 SE 0 0,0
19.10.2019 18:00:00 16,4 8,1 14,7 15,7 5 3 32 18 WSW 0 0,0
19.10.2019 17:00:00 17,5 6,4 14,5 15,7 18 10 53 28 ENE 22 0,0
19.10.2019 16:00:00 18,3 6,5 14,3 15,8 18 10 48 26 ENE 37 0,0
19.10.2019 15:00:00 19,3 7,1 13,9 15,7 19 10 50 27 ENE 52 0,0
19.10.2019 14:00:00 18,3 8,3 13,6 15,8 3 1 13 7 WNW 49 0,0
19.10.2019 13:00:00 17,0 8,9 13,4 15,8 3 1 9 5 SE 48 0,0
19.10.2019 12:00:00 14,6 10,6 13,3 15,8 6 3 13 7 ENE 41 0,0
19.10.2019 11:00:00 12,2 10,8 13,3 15,7 3 2 6 4 S 2 0,0
19.10.2019 10:00:00 10,6 10,0 13,3 15,8 5 3 14 8 NE 0 0,2
19.10.2019 09:00:00 10,0 9,7 13,4 15,8 4 2 6 3 N 0 1,0
19.10.2019 08:00:00 9,9 9,3 13,5 15,8 0 0 9 5 N 0 1,8
19.10.2019 07:00:00 9,9 9,6 13,6 15,8 6 3 9 5 NNW 0 3,1
19.10.2019 06:00:00 9,9 9,4 13,7 15,8 4 2 10 6 SSW 0 1,4
19.10.2019 05:00:00 9,9 9,4 13,7 15,8 5 3 9 5 N 0 1,4
19.10.2019 04:00:00 9,9 9,4 13,8 15,8 3 1 9 5 SSW 0 0,2
19.10.2019 03:00:00 9,9 9,4 13,9 15,8 3 1 9 5 S 0 0,0
19.10.2019 02:00:00 9,9 9,4 14,0 15,8 5 3 10 5 W 0 0,2
19.10.2019 01:00:00 10,2 9,6 14,1 15,8 3 2 9 5 NNE 0 0,0
19.10.2019 00:00:00 10,7 10,1 14,1 15,8 3 2 9 5 NNW 0 0,0
18.10.2019 23:00:00 11,0 10,2 14,2 15,8 3 1 8 4 NW 0 0,0
18.10.2019 22:00:00 11,5 10,6 14,2 15,8 0 0 6 3 N 0 0,0
18.10.2019 21:00:00 11,8 10,9 14,2 15,8 3 1 5 3 NW 0 0,0
18.10.2019 20:00:00 12,3 11,0 14,2 15,9 3 1 5 3 NNW 0 0,0
18.10.2019 19:00:00 12,8 11,0 14,2 15,8 2 1 7 4 W 0 0,0
18.10.2019 18:00:00 14,2 11,5 14,0 15,8 4 2 9 5 SSW 0 0,0
18.10.2019 17:00:00 15,4 11,6 13,8 15,9 0 0 9 5 N 20 0,0
18.10.2019 16:00:00 15,7 11,1 13,6 15,9 4 2 9 5 SSW 29 0,0
18.10.2019 15:00:00 14,1 11,1 13,5 15,9 4 2 8 4 NNE 17 0,2
18.10.2019 14:00:00 12,8 11,0 13,4 15,9 3 2 9 5 N 0 1,0
18.10.2019 13:00:00 12,5 10,0 13,3 15,9 3 2 17 9 W 0 0,0
18.10.2019 12:00:00 12,1 10,5 13,3 15,9 5 3 11 6 S 8 0,0
18.10.2019 11:00:00 10,6 10,0 13,3 15,9 4 2 13 7 N 0 0,2
18.10.2019 10:00:00 9,7 9,6 13,3 15,9 4 2 10 5 W 0 0,0
18.10.2019 09:00:00 9,4 9,3 13,4 15,9 5 3 9 5 NNE 4 0,0
18.10.2019 08:00:00 9,2 9,1 13,5 15,9 2 1 5 3 SSE 0 0,0
18.10.2019 07:00:00 9,1 8,6 13,5 15,9 2 1 8 4 SW 0 0,0
18.10.2019 06:00:00 9,5 9,2 13,6 15,9 4 2 6 4 N 0 0,0
18.10.2019 05:00:00 9,6 9,0 13,7 15,9 3 2 5 3 SSW 0 0,0
18.10.2019 04:00:00 10,1 9,5 13,7 15,9 3 2 16 8 NNW 0 0,2
18.10.2019 03:00:00 10,2 9,7 13,8 16,0 6 3 10 5 N 0 0,0
18.10.2019 02:00:00 10,2 9,7 13,8 16,0 2 1 8 4 S 0 0,0
18.10.2019 01:00:00 10,4 9,9 13,9 16,0 0 0 6 4 N 0 0,2
18.10.2019 00:00:00 10,5 9,9 13,9 16,0 3 2 10 5 ENE 0 0,2
17.10.2019 23:00:00 10,7 9,8 13,9 16,0 3 1 6 3 NE 0 0,2
17.10.2019 22:00:00 10,9 9,8 14,0 16,0 2 1 9 5 W 0 0,2
17.10.2019 21:00:00 11,2 9,8 14,0 16,0 5 3 9 5 WNW 0 0,4
17.10.2019 20:00:00 11,8 9,2 14,0 16,0 5 3 13 7 NW 0 0,4
17.10.2019 19:00:00 12,8 9,1 13,9 16,0 5 3 9 5 W 0 0,0
17.10.2019 18:00:00 14,3 8,3 13,7 16,0 2 1 17 9 WSW 0 0,0
17.10.2019 17:00:00 15,9 6,6 13,5 16,0 5 3 14 8 SSW 4 0,0
17.10.2019 16:00:00 17,4 5,0 13,3 16,0 3 1 12 7 S 23 0,0
17.10.2019 15:00:00 17,7 5,0 13,0 16,0 6 3 10 6 S 44 0,0
17.10.2019 14:00:00 15,0 4,7 12,7 16,0 5 3 14 8 S 0 0,0
17.10.2019 13:00:00 17,0 5,3 12,5 16,0 5 3 10 6 S 52 0,0
17.10.2019 12:00:00 15,0 6,3 12,4 16,1 3 2 9 5 SSE 60 0,0
17.10.2019 11:00:00 9,9 6,2 12,5 16,1 2 1 5 3 NNW 16 0,0
17.10.2019 10:00:00 7,6 5,9 12,5 16,1 3 2 8 4 ESE 3 0,0
17.10.2019 09:00:00 6,1 4,9 12,7 16,1 5 3 9 5 SSW 0 0,0
17.10.2019 08:00:00 6,0 4,8 12,8 16,1 0 0 5 3 N 0 0,0
17.10.2019 07:00:00 6,5 5,4 12,9 16,1 3 2 6 3 W 0 0,0
17.10.2019 06:00:00 6,7 5,6 12,9 16,1 0 0 6 3 N 0 0,0
17.10.2019 05:00:00 6,1 4,7 13,1 16,1 3 1 8 4 N 0 0,0
17.10.2019 04:00:00 6,0 5,0 13,3 16,1 3 2 5 3 NW 0 0,2
17.10.2019 03:00:00 5,6 4,7 13,4 16,1 3 2 8 4 NNW 0 0,0
17.10.2019 02:00:00 5,9 4,9 13,6 16,1 0 0 8 5 N 0 0,0
17.10.2019 01:00:00 5,8 4,8 13,7 16,1 3 2 8 5 SW 0 0,0
17.10.2019 00:00:00 6,1 4,9 13,9 16,1 3 2 6 3 NNE 0 0,0
16.10.2019 23:00:00 6,4 4,9 14,1 16,1 2 1 6 4 NNE 0 0,0
16.10.2019 22:00:00 7,1 5,1 14,2 16,2 0 0 8 4 N 0 0,0
16.10.2019 21:00:00 7,9 5,4 14,3 16,2 3 2 10 5 NNW 0 0,0
16.10.2019 20:00:00 8,6 5,9 14,4 16,2 4 2 7 4 N 0 0,0
16.10.2019 19:00:00 10,0 6,0 14,3 16,2 4 2 9 5 NNW 0 0,0
16.10.2019 18:00:00 11,5 6,0 14,2 16,2 6 3 11 6 WNW 29 0,0
16.10.2019 17:00:00 13,9 5,8 14,0 16,2 5 3 12 7 W 60 0,0
16.10.2019 16:00:00 15,5 6,8 13,7 16,2 4 2 11 6 W 60 0,0
16.10.2019 15:00:00 17,6 5,2 13,4 16,2 5 3 12 6 S 60 0,0
16.10.2019 14:00:00 16,7 3,0 13,0 16,2 5 3 10 5 S 60 0,0
16.10.2019 13:00:00 14,2 2,4 12,8 16,2 5 3 9 5 E 60 0,0
16.10.2019 12:00:00 12,0 4,5 12,6 16,2 2 1 7 4 S 60 0,0
16.10.2019 11:00:00 9,0 4,8 12,7 16,2 2 1 8 4 ESE 60 0,0
16.10.2019 10:00:00 5,4 5,4 12,8 16,2 3 1 5 3 E 27 0,0
16.10.2019 09:00:00 3,3 3,0 13,0 16,2 3 2 6 3 WNW 0 0,0
16.10.2019 08:00:00 3,6 3,3 13,1 16,2 4 2 6 4 N 0 0,0
16.10.2019 07:00:00 4,0 3,9 13,3 16,2 3 1 4 2 NE 0 0,0
16.10.2019 06:00:00 4,0 3,4 13,5 16,2 3 1 4 2 W 0 0,0
16.10.2019 05:00:00 4,7 4,0 13,7 16,2 0 0 6 4 N 0 0,0
16.10.2019 04:00:00 5,7 5,1 13,8 16,2 3 2 7 4 N 0 0,2
16.10.2019 03:00:00 6,6 6,0 13,9 16,2 3 2 6 3 WNW 0 0,0
16.10.2019 02:00:00 6,4 5,8 14,1 16,2 3 2 6 4 SW 0 0,0
16.10.2019 01:00:00 7,0 6,1 14,2 16,2 3 2 14 7 SSW 0 0,0
16.10.2019 00:00:00 7,6 6,7 14,3 16,2 4 2 17 9 SW 0 0,0
15.10.2019 23:00:00 7,7 6,9 14,4 16,2 5 3 16 9 SW 0 0,0
15.10.2019 22:00:00 7,9 7,1 14,5 16,2 8 4 15 8 SW 0 0,0
15.10.2019 21:00:00 8,1 7,3 14,6 16,2 3 2 13 7 WSW 0 0,0
15.10.2019 20:00:00 8,1 7,3 14,7 16,2 2 1 11 6 SSW 0 0,6
15.10.2019 19:00:00 8,4 7,0 14,8 16,2 4 2 9 5 N 16 0,4
15.10.2019 18:00:00 8,8 6,9 14,8 16,2 4 2 30 16 NW 0 1,8
15.10.2019 17:00:00 9,4 7,2 14,8 16,2 28 15 61 33 SSW 0 1,0
15.10.2019 16:00:00 12,3 11,2 14,7 16,2 9 5 18 10 SW 0 0,4
15.10.2019 15:00:00 12,9 11,3 14,7 16,2 6 3 18 10 SW 0 0,0
15.10.2019 14:00:00 13,4 11,5 14,6 16,2 5 3 11 6 S 0 0,0
15.10.2019 13:00:00 12,2 11,4 14,6 16,2 4 2 14 8 W 0 1,2
15.10.2019 12:00:00 12,5 11,7 14,6 16,2 4 2 8 4 SW 0 1,4
15.10.2019 11:00:00 12,5 11,4 14,6 16,2 2 1 13 7 W 0 1,8
15.10.2019 10:00:00 13,0 10,9 14,7 16,2 6 4 19 10 SW 0 0,4
15.10.2019 09:00:00 13,6 10,9 14,7 16,2 12 7 29 15 N 0 0,8
15.10.2019 08:00:00 17,4 7,4 14,7 16,2 15 8 38 20 NE 0 0,0
15.10.2019 07:00:00 17,8 6,3 14,7 16,2 21 11 46 25 NE 0 0,0
15.10.2019 06:00:00 17,8 6,6 14,7 16,2 21 11 53 29 ENE 0 0,0

tt = Température de l'air
td = dewpoint
tt -20cm = Température de l'air -20cm
tt -100cm = Température de l'air -100cm
ff = Vitesse du vent
fx = gusts
dd = Direction du vent
sd = Ensoleillement
rr = Quantités de précipitations

stations d'obs. à proximité